sensor_id;sensor_type;location;lat;lon;timestamp;P1;durP1;ratioP1;P2;durP2;ratioP2
40623;SDS011;26325;48.594;11.650;2022-08-19T00:01:53;16.48;;;15.27;;
40623;SDS011;26325;48.594;11.650;2022-08-19T00:04:24;17.98;;;16.58;;
40623;SDS011;26325;48.594;11.650;2022-08-19T00:06:51;18.33;;;16.92;;
40623;SDS011;26325;48.594;11.650;2022-08-19T00:09:19;18.50;;;17.13;;
40623;SDS011;26325;48.594;11.650;2022-08-19T00:11:48;19.38;;;17.88;;
40623;SDS011;26325;48.594;11.650;2022-08-19T00:14:15;18.30;;;16.90;;
40623;SDS011;26325;48.594;11.650;2022-08-19T00:16:43;18.55;;;17.10;;
40623;SDS011;26325;48.594;11.650;2022-08-19T00:19:12;18.80;;;17.40;;
40623;SDS011;26325;48.594;11.650;2022-08-19T00:21:40;19.85;;;18.35;;
40623;SDS011;26325;48.594;11.650;2022-08-19T00:24:09;19.25;;;17.85;;
40623;SDS011;26325;48.594;11.650;2022-08-19T00:26:42;20.15;;;18.65;;
40623;SDS011;26325;48.594;11.650;2022-08-19T00:29:12;21.10;;;19.55;;
40623;SDS011;26325;48.594;11.650;2022-08-19T00:31:40;21.92;;;20.17;;
40623;SDS011;26325;48.594;11.650;2022-08-19T00:34:08;22.13;;;20.30;;
40623;SDS011;26325;48.594;11.650;2022-08-19T00:36:34;19.55;;;18.05;;
40623;SDS011;26325;48.594;11.650;2022-08-19T00:41:26;19.40;;;17.90;;
40623;SDS011;26325;48.594;11.650;2022-08-19T00:44:07;21.85;;;20.10;;
40623;SDS011;26325;48.594;11.650;2022-08-19T00:46:36;21.27;;;19.58;;
40623;SDS011;26325;48.594;11.650;2022-08-19T00:49:12;21.73;;;20.02;;
40623;SDS011;26325;48.594;11.650;2022-08-19T00:51:44;22.67;;;20.88;;
40623;SDS011;26325;48.594;11.650;2022-08-19T00:54:11;21.85;;;20.15;;
40623;SDS011;26325;48.594;11.650;2022-08-19T00:56:38;22.80;;;21.10;;
40623;SDS011;26325;48.594;11.650;2022-08-19T00:59:05;19.33;;;17.83;;
40623;SDS011;26325;48.594;11.650;2022-08-19T01:01:36;17.45;;;16.05;;
40623;SDS011;26325;48.594;11.650;2022-08-19T01:04:07;16.35;;;15.05;;
40623;SDS011;26325;48.594;11.650;2022-08-19T01:06:36;20.33;;;18.77;;
40623;SDS011;26325;48.594;11.650;2022-08-19T01:09:02;22.38;;;20.38;;
40623;SDS011;26325;48.594;11.650;2022-08-19T01:11:30;21.10;;;19.40;;
40623;SDS011;26325;48.594;11.650;2022-08-19T01:13:58;19.92;;;18.27;;
40623;SDS011;26325;48.594;11.650;2022-08-19T01:18:51;22.15;;;20.45;;
40623;SDS011;26325;48.594;11.650;2022-08-19T01:24:05;21.73;;;19.95;;
40623;SDS011;26325;48.594;11.650;2022-08-19T01:26:31;23.25;;;21.45;;
40623;SDS011;26325;48.594;11.650;2022-08-19T01:29:05;19.88;;;18.20;;
40623;SDS011;26325;48.594;11.650;2022-08-19T01:31:33;19.73;;;18.13;;
40623;SDS011;26325;48.594;11.650;2022-08-19T01:34:00;18.50;;;16.90;;
40623;SDS011;26325;48.594;11.650;2022-08-19T01:36:33;18.00;;;16.55;;
40623;SDS011;26325;48.594;11.650;2022-08-19T01:39:01;19.85;;;18.35;;
40623;SDS011;26325;48.594;11.650;2022-08-19T01:41:32;17.45;;;16.15;;
40623;SDS011;26325;48.594;11.650;2022-08-19T01:43:59;19.80;;;18.30;;
40623;SDS011;26325;48.594;11.650;2022-08-19T01:46:29;20.63;;;18.73;;
40623;SDS011;26325;48.594;11.650;2022-08-19T01:48:56;18.75;;;17.25;;
40623;SDS011;26325;48.594;11.650;2022-08-19T01:53:51;21.38;;;19.65;;
40623;SDS011;26325;48.594;11.650;2022-08-19T01:56:19;22.05;;;20.30;;
40623;SDS011;26325;48.594;11.650;2022-08-19T01:58:49;19.90;;;18.40;;
40623;SDS011;26325;48.594;11.650;2022-08-19T02:01:23;17.10;;;15.80;;
40623;SDS011;26325;48.594;11.650;2022-08-19T02:03:49;15.73;;;14.52;;
40623;SDS011;26325;48.594;11.650;2022-08-19T02:06:17;16.10;;;14.90;;
40623;SDS011;26325;48.594;11.650;2022-08-19T02:11:22;15.02;;;13.82;;
40623;SDS011;26325;48.594;11.650;2022-08-19T02:13:52;15.98;;;14.77;;
40623;SDS011;26325;48.594;11.650;2022-08-19T02:16:19;17.58;;;16.13;;
40623;SDS011;26325;48.594;11.650;2022-08-19T02:21:15;16.50;;;15.10;;
40623;SDS011;26325;48.594;11.650;2022-08-19T02:23:46;14.80;;;13.60;;
40623;SDS011;26325;48.594;11.650;2022-08-19T02:26:16;14.20;;;13.10;;
40623;SDS011;26325;48.594;11.650;2022-08-19T02:28:42;15.27;;;14.07;;
40623;SDS011;26325;48.594;11.650;2022-08-19T02:33:49;13.82;;;12.70;;
40623;SDS011;26325;48.594;11.650;2022-08-19T02:36:16;15.27;;;14.05;;
40623;SDS011;26325;48.594;11.650;2022-08-19T02:38:43;15.68;;;14.38;;
40623;SDS011;26325;48.594;11.650;2022-08-19T02:41:15;15.23;;;13.93;;
40623;SDS011;26325;48.594;11.650;2022-08-19T02:43:44;13.35;;;12.25;;
40623;SDS011;26325;48.594;11.650;2022-08-19T02:46:19;14.43;;;13.27;;
40623;SDS011;26325;48.594;11.650;2022-08-19T02:48:52;14.15;;;13.15;;
40623;SDS011;26325;48.594;11.650;2022-08-19T02:51:21;14.23;;;13.15;;
40623;SDS011;26325;48.594;11.650;2022-08-19T02:53:54;15.57;;;14.35;;
40623;SDS011;26325;48.594;11.650;2022-08-19T02:56:20;18.42;;;16.85;;
40623;SDS011;26325;48.594;11.650;2022-08-19T02:58:50;16.80;;;15.40;;
40623;SDS011;26325;48.594;11.650;2022-08-19T03:01:25;18.08;;;16.48;;
40623;SDS011;26325;48.594;11.650;2022-08-19T03:03:52;16.42;;;15.18;;
40623;SDS011;26325;48.594;11.650;2022-08-19T03:06:18;19.80;;;18.20;;
40623;SDS011;26325;48.594;11.650;2022-08-19T03:08:48;18.98;;;17.45;;
40623;SDS011;26325;48.594;11.650;2022-08-19T03:11:20;18.48;;;16.88;;
40623;SDS011;26325;48.594;11.650;2022-08-19T03:13:48;18.52;;;17.02;;
40623;SDS011;26325;48.594;11.650;2022-08-19T03:16:19;14.63;;;13.48;;
40623;SDS011;26325;48.594;11.650;2022-08-19T03:18:49;17.20;;;15.73;;
40623;SDS011;26325;48.594;11.650;2022-08-19T03:21:18;16.55;;;15.23;;
40623;SDS011;26325;48.594;11.650;2022-08-19T03:23:46;17.15;;;15.75;;
40623;SDS011;26325;48.594;11.650;2022-08-19T03:28:40;11.95;;;10.95;;
40623;SDS011;26325;48.594;11.650;2022-08-19T03:31:11;13.60;;;12.50;;
40623;SDS011;26325;48.594;11.650;2022-08-19T03:33:38;11.52;;;10.63;;
40623;SDS011;26325;48.594;11.650;2022-08-19T03:36:13;12.18;;;11.27;;
40623;SDS011;26325;48.594;11.650;2022-08-19T03:38:48;12.50;;;11.43;;
40623;SDS011;26325;48.594;11.650;2022-08-19T03:41:19;12.48;;;11.50;;
40623;SDS011;26325;48.594;11.650;2022-08-19T03:43:48;12.30;;;11.35;;
40623;SDS011;26325;48.594;11.650;2022-08-19T03:46:23;15.18;;;13.85;;
40623;SDS011;26325;48.594;11.650;2022-08-19T03:48:54;16.48;;;15.10;;
40623;SDS011;26325;48.594;11.650;2022-08-19T03:51:24;14.48;;;13.18;;
40623;SDS011;26325;48.594;11.650;2022-08-19T03:53:59;13.45;;;12.35;;
40623;SDS011;26325;48.594;11.650;2022-08-19T03:56:27;15.18;;;13.88;;
40623;SDS011;26325;48.594;11.650;2022-08-19T03:58:58;16.30;;;14.93;;
40623;SDS011;26325;48.594;11.650;2022-08-19T04:01:26;17.23;;;15.90;;
40623;SDS011;26325;48.594;11.650;2022-08-19T04:03:53;14.40;;;13.30;;
40623;SDS011;26325;48.594;11.650;2022-08-19T04:06:32;15.07;;;13.80;;
40623;SDS011;26325;48.594;11.650;2022-08-19T04:09:04;16.60;;;15.07;;
40623;SDS011;26325;48.594;11.650;2022-08-19T04:11:36;18.42;;;16.90;;
40623;SDS011;26325;48.594;11.650;2022-08-19T04:14:08;15.77;;;14.48;;
40623;SDS011;26325;48.594;11.650;2022-08-19T04:16:35;15.48;;;14.25;;
40623;SDS011;26325;48.594;11.650;2022-08-19T04:21:28;18.30;;;16.75;;
40623;SDS011;26325;48.594;11.650;2022-08-19T04:26:26;13.95;;;12.85;;
40623;SDS011;26325;48.594;11.650;2022-08-19T04:28:58;12.85;;;11.85;;
40623;SDS011;26325;48.594;11.650;2022-08-19T04:31:30;15.68;;;14.38;;
40623;SDS011;26325;48.594;11.650;2022-08-19T04:33:58;15.50;;;14.27;;
40623;SDS011;26325;48.594;11.650;2022-08-19T04:36:29;14.80;;;13.45;;
40623;SDS011;26325;48.594;11.650;2022-08-19T04:39:00;14.68;;;13.48;;
40623;SDS011;26325;48.594;11.650;2022-08-19T04:41:32;14.20;;;13.07;;
40623;SDS011;26325;48.594;11.650;2022-08-19T04:44:18;13.90;;;12.60;;
40623;SDS011;26325;48.594;11.650;2022-08-19T04:46:46;15.55;;;14.15;;
40623;SDS011;26325;48.594;11.650;2022-08-19T04:49:20;12.95;;;11.95;;
40623;SDS011;26325;48.594;11.650;2022-08-19T04:51:48;15.32;;;14.00;;
40623;SDS011;26325;48.594;11.650;2022-08-19T04:54:17;13.40;;;12.30;;
40623;SDS011;26325;48.594;11.650;2022-08-19T04:56:48;14.05;;;12.85;;
40623;SDS011;26325;48.594;11.650;2022-08-19T04:59:16;14.18;;;13.07;;
40623;SDS011;26325;48.594;11.650;2022-08-19T05:01:44;13.15;;;12.13;;
40623;SDS011;26325;48.594;11.650;2022-08-19T05:04:18;15.13;;;13.82;;
40623;SDS011;26325;48.594;11.650;2022-08-19T05:06:49;14.43;;;13.23;;
40623;SDS011;26325;48.594;11.650;2022-08-19T05:09:15;14.00;;;12.80;;
40623;SDS011;26325;48.594;11.650;2022-08-19T05:11:45;14.90;;;13.80;;
40623;SDS011;26325;48.594;11.650;2022-08-19T05:14:12;13.88;;;12.68;;
40623;SDS011;26325;48.594;11.650;2022-08-19T05:16:43;17.77;;;16.27;;
40623;SDS011;26325;48.594;11.650;2022-08-19T05:19:08;15.00;;;13.77;;
40623;SDS011;26325;48.594;11.650;2022-08-19T05:21:53;14.95;;;13.75;;
40623;SDS011;26325;48.594;11.650;2022-08-19T05:24:39;13.73;;;12.63;;
40623;SDS011;26325;48.594;11.650;2022-08-19T05:27:05;14.30;;;13.10;;
40623;SDS011;26325;48.594;11.650;2022-08-19T05:29:38;13.98;;;12.88;;
40623;SDS011;26325;48.594;11.650;2022-08-19T05:32:05;17.80;;;16.30;;
40623;SDS011;26325;48.594;11.650;2022-08-19T05:34:36;13.77;;;12.77;;
40623;SDS011;26325;48.594;11.650;2022-08-19T05:37:03;14.77;;;13.57;;
40623;SDS011;26325;48.594;11.650;2022-08-19T05:39:32;14.52;;;13.43;;
40623;SDS011;26325;48.594;11.650;2022-08-19T05:42:04;13.43;;;12.32;;
40623;SDS011;26325;48.594;11.650;2022-08-19T05:44:35;14.20;;;13.10;;
40623;SDS011;26325;48.594;11.650;2022-08-19T05:47:04;13.02;;;11.93;;
40623;SDS011;26325;48.594;11.650;2022-08-19T05:49:33;14.32;;;13.13;;
40623;SDS011;26325;48.594;11.650;2022-08-19T05:52:02;14.00;;;12.95;;
40623;SDS011;26325;48.594;11.650;2022-08-19T05:54:29;16.65;;;15.35;;
40623;SDS011;26325;48.594;11.650;2022-08-19T05:56:57;16.35;;;14.88;;
40623;SDS011;26325;48.594;11.650;2022-08-19T05:59:23;15.10;;;13.90;;
40623;SDS011;26325;48.594;11.650;2022-08-19T06:01:51;14.10;;;13.00;;
40623;SDS011;26325;48.594;11.650;2022-08-19T06:04:19;15.20;;;13.98;;
40623;SDS011;26325;48.594;11.650;2022-08-19T06:06:46;16.38;;;15.07;;
40623;SDS011;26325;48.594;11.650;2022-08-19T06:09:15;14.43;;;13.32;;
40623;SDS011;26325;48.594;11.650;2022-08-19T06:11:55;16.65;;;15.35;;
40623;SDS011;26325;48.594;11.650;2022-08-19T06:14:31;19.65;;;17.92;;
40623;SDS011;26325;48.594;11.650;2022-08-19T06:17:06;18.23;;;16.67;;
40623;SDS011;26325;48.594;11.650;2022-08-19T06:19:34;18.02;;;16.52;;
40623;SDS011;26325;48.594;11.650;2022-08-19T06:21:59;15.27;;;14.10;;
40623;SDS011;26325;48.594;11.650;2022-08-19T06:24:27;17.27;;;15.93;;
40623;SDS011;26325;48.594;11.650;2022-08-19T06:26:55;17.35;;;15.85;;
40623;SDS011;26325;48.594;11.650;2022-08-19T06:29:24;17.90;;;16.33;;
40623;SDS011;26325;48.594;11.650;2022-08-19T06:31:53;19.20;;;17.70;;
40623;SDS011;26325;48.594;11.650;2022-08-19T06:34:21;19.40;;;17.85;;
40623;SDS011;26325;48.594;11.650;2022-08-19T06:36:49;20.48;;;18.73;;
40623;SDS011;26325;48.594;11.650;2022-08-19T06:39:21;19.30;;;17.63;;
40623;SDS011;26325;48.594;11.650;2022-08-19T06:41:51;18.75;;;17.15;;
40623;SDS011;26325;48.594;11.650;2022-08-19T06:44:20;18.13;;;16.63;;
40623;SDS011;26325;48.594;11.650;2022-08-19T06:46:48;18.63;;;17.13;;
40623;SDS011;26325;48.594;11.650;2022-08-19T06:49:14;19.30;;;17.80;;
40623;SDS011;26325;48.594;11.650;2022-08-19T06:51:45;21.05;;;19.35;;
40623;SDS011;26325;48.594;11.650;2022-08-19T06:54:16;19.73;;;18.05;;
40623;SDS011;26325;48.594;11.650;2022-08-19T06:56:43;19.48;;;17.98;;
40623;SDS011;26325;48.594;11.650;2022-08-19T06:59:16;19.60;;;18.00;;
40623;SDS011;26325;48.594;11.650;2022-08-19T07:01:50;21.15;;;19.30;;
40623;SDS011;26325;48.594;11.650;2022-08-19T07:04:24;21.75;;;19.95;;
40623;SDS011;26325;48.594;11.650;2022-08-19T07:07:06;20.35;;;18.55;;
40623;SDS011;26325;48.594;11.650;2022-08-19T07:09:36;20.95;;;19.10;;
40623;SDS011;26325;48.594;11.650;2022-08-19T07:12:05;19.42;;;17.90;;
40623;SDS011;26325;48.594;11.650;2022-08-19T07:14:36;23.58;;;21.48;;
40623;SDS011;26325;48.594;11.650;2022-08-19T07:17:08;19.33;;;17.83;;
40623;SDS011;26325;48.594;11.650;2022-08-19T07:19:38;21.30;;;19.45;;
40623;SDS011;26325;48.594;11.650;2022-08-19T07:22:07;22.10;;;20.20;;
40623;SDS011;26325;48.594;11.650;2022-08-19T07:24:35;20.05;;;18.42;;
40623;SDS011;26325;48.594;11.650;2022-08-19T07:27:05;18.58;;;17.10;;
40623;SDS011;26325;48.594;11.650;2022-08-19T07:29:33;17.90;;;16.50;;
40623;SDS011;26325;48.594;11.650;2022-08-19T07:32:01;17.73;;;16.33;;
40623;SDS011;26325;48.594;11.650;2022-08-19T07:34:29;18.23;;;16.77;;
40623;SDS011;26325;48.594;11.650;2022-08-19T07:36:56;17.00;;;15.60;;
40623;SDS011;26325;48.594;11.650;2022-08-19T07:39:27;17.42;;;16.13;;
40623;SDS011;26325;48.594;11.650;2022-08-19T07:41:55;20.38;;;18.77;;
40623;SDS011;26325;48.594;11.650;2022-08-19T07:44:25;23.50;;;21.55;;
40623;SDS011;26325;48.594;11.650;2022-08-19T07:46:55;22.70;;;20.88;;
40623;SDS011;26325;48.594;11.650;2022-08-19T07:49:22;21.13;;;19.40;;
40623;SDS011;26325;48.594;11.650;2022-08-19T07:54:24;20.02;;;18.42;;
40623;SDS011;26325;48.594;11.650;2022-08-19T07:56:52;22.23;;;20.42;;
40623;SDS011;26325;48.594;11.650;2022-08-19T07:59:19;23.23;;;21.23;;
40623;SDS011;26325;48.594;11.650;2022-08-19T08:01:45;23.23;;;21.33;;
40623;SDS011;26325;48.594;11.650;2022-08-19T08:04:12;28.98;;;26.48;;
40623;SDS011;26325;48.594;11.650;2022-08-19T08:06:57;22.77;;;20.83;;
40623;SDS011;26325;48.594;11.650;2022-08-19T08:09:43;25.40;;;23.17;;
40623;SDS011;26325;48.594;11.650;2022-08-19T08:12:18;20.30;;;18.70;;
40623;SDS011;26325;48.594;11.650;2022-08-19T08:14:52;20.10;;;18.52;;
40623;SDS011;26325;48.594;11.650;2022-08-19T08:17:21;20.85;;;19.15;;
40623;SDS011;26325;48.594;11.650;2022-08-19T08:19:49;25.38;;;23.25;;
40623;SDS011;26325;48.594;11.650;2022-08-19T08:22:18;26.67;;;24.48;;
40623;SDS011;26325;48.594;11.650;2022-08-19T08:25:12;23.73;;;21.88;;
40623;SDS011;26325;48.594;11.650;2022-08-19T08:30:15;21.92;;;20.23;;
40623;SDS011;26325;48.594;11.650;2022-08-19T08:32:44;25.77;;;23.67;;
40623;SDS011;26325;48.594;11.650;2022-08-19T08:35:14;21.65;;;19.90;;
40623;SDS011;26325;48.594;11.650;2022-08-19T08:37:46;22.13;;;20.42;;
40623;SDS011;26325;48.594;11.650;2022-08-19T08:40:43;25.65;;;23.52;;
40623;SDS011;26325;48.594;11.650;2022-08-19T08:43:19;24.33;;;22.33;;
40623;SDS011;26325;48.594;11.650;2022-08-19T08:46:01;22.70;;;20.90;;
40623;SDS011;26325;48.594;11.650;2022-08-19T08:48:51;20.27;;;18.77;;
40623;SDS011;26325;48.594;11.650;2022-08-19T08:51:28;20.35;;;18.80;;
40623;SDS011;26325;48.594;11.650;2022-08-19T08:54:01;22.55;;;20.67;;
40623;SDS011;26325;48.594;11.650;2022-08-19T08:56:31;20.65;;;19.05;;
40623;SDS011;26325;48.594;11.650;2022-08-19T08:59:28;17.25;;;16.00;;
40623;SDS011;26325;48.594;11.650;2022-08-19T09:02:04;20.55;;;18.95;;
40623;SDS011;26325;48.594;11.650;2022-08-19T09:04:34;19.25;;;17.85;;
40623;SDS011;26325;48.594;11.650;2022-08-19T09:10:49;17.42;;;16.05;;
40623;SDS011;26325;48.594;11.650;2022-08-19T09:13:44;17.35;;;16.05;;
40623;SDS011;26325;48.594;11.650;2022-08-19T09:16:22;18.17;;;16.77;;
40623;SDS011;26325;48.594;11.650;2022-08-19T09:19:05;16.95;;;15.70;;
40623;SDS011;26325;48.594;11.650;2022-08-19T09:21:32;17.95;;;16.65;;
40623;SDS011;26325;48.594;11.650;2022-08-19T09:24:02;15.38;;;14.27;;
40623;SDS011;26325;48.594;11.650;2022-08-19T09:26:30;17.80;;;16.50;;
40623;SDS011;26325;48.594;11.650;2022-08-19T09:29:00;18.38;;;16.88;;
40623;SDS011;26325;48.594;11.650;2022-08-19T09:31:31;17.77;;;16.48;;
40623;SDS011;26325;48.594;11.650;2022-08-19T09:34:04;17.75;;;16.45;;
40623;SDS011;26325;48.594;11.650;2022-08-19T09:36:31;15.20;;;14.10;;
40623;SDS011;26325;48.594;11.650;2022-08-19T09:39:05;14.02;;;13.02;;
40623;SDS011;26325;48.594;11.650;2022-08-19T09:41:31;15.90;;;14.70;;
40623;SDS011;26325;48.594;11.650;2022-08-19T09:44:01;19.13;;;17.58;;
40623;SDS011;26325;48.594;11.650;2022-08-19T09:46:31;14.68;;;13.65;;
40623;SDS011;26325;48.594;11.650;2022-08-19T09:49:01;15.07;;;13.88;;
40623;SDS011;26325;48.594;11.650;2022-08-19T09:51:27;16.38;;;15.07;;
40623;SDS011;26325;48.594;11.650;2022-08-19T09:53:59;15.63;;;14.32;;
40623;SDS011;26325;48.594;11.650;2022-08-19T09:56:29;13.98;;;12.98;;
40623;SDS011;26325;48.594;11.650;2022-08-19T09:59:01;15.25;;;14.15;;
40623;SDS011;26325;48.594;11.650;2022-08-19T10:01:30;16.75;;;15.45;;
40623;SDS011;26325;48.594;11.650;2022-08-19T10:03:58;17.15;;;15.75;;
40623;SDS011;26325;48.594;11.650;2022-08-19T10:06:26;16.70;;;15.40;;
40623;SDS011;26325;48.594;11.650;2022-08-19T10:08:56;16.10;;;14.80;;
40623;SDS011;26325;48.594;11.650;2022-08-19T10:11:24;15.95;;;14.65;;
40623;SDS011;26325;48.594;11.650;2022-08-19T10:13:53;16.92;;;15.63;;
40623;SDS011;26325;48.594;11.650;2022-08-19T10:16:21;16.35;;;15.15;;
40623;SDS011;26325;48.594;11.650;2022-08-19T10:18:49;14.68;;;13.57;;
40623;SDS011;26325;48.594;11.650;2022-08-19T10:21:17;18.05;;;16.55;;
40623;SDS011;26325;48.594;11.650;2022-08-19T10:23:47;17.52;;;16.23;;
40623;SDS011;26325;48.594;11.650;2022-08-19T10:26:31;17.17;;;15.77;;
40623;SDS011;26325;48.594;11.650;2022-08-19T10:29:00;18.08;;;16.58;;
40623;SDS011;26325;48.594;11.650;2022-08-19T10:31:28;18.33;;;16.80;;
40623;SDS011;26325;48.594;11.650;2022-08-19T10:33:55;16.27;;;15.02;;
40623;SDS011;26325;48.594;11.650;2022-08-19T10:36:32;16.33;;;15.13;;
40623;SDS011;26325;48.594;11.650;2022-08-19T10:39:03;15.20;;;14.00;;
40623;SDS011;26325;48.594;11.650;2022-08-19T10:41:32;14.70;;;13.60;;
40623;SDS011;26325;48.594;11.650;2022-08-19T10:44:03;15.60;;;14.40;;
40623;SDS011;26325;48.594;11.650;2022-08-19T10:46:31;17.50;;;16.15;;
40623;SDS011;26325;48.594;11.650;2022-08-19T10:49:04;16.92;;;15.68;;
40623;SDS011;26325;48.594;11.650;2022-08-19T10:51:38;15.73;;;14.63;;
40623;SDS011;26325;48.594;11.650;2022-08-19T10:54:24;14.27;;;13.27;;
40623;SDS011;26325;48.594;11.650;2022-08-19T10:57:10;15.47;;;14.37;;
40623;SDS011;26325;48.594;11.650;2022-08-19T10:59:35;16.58;;;15.38;;
40623;SDS011;26325;48.594;11.650;2022-08-19T11:02:03;14.95;;;13.80;;
40623;SDS011;26325;48.594;11.650;2022-08-19T11:04:30;16.55;;;15.35;;
40623;SDS011;26325;48.594;11.650;2022-08-19T11:06:57;13.15;;;12.20;;
40623;SDS011;26325;48.594;11.650;2022-08-19T11:09:24;12.70;;;11.80;;
40623;SDS011;26325;48.594;11.650;2022-08-19T11:11:54;13.20;;;12.20;;
40623;SDS011;26325;48.594;11.650;2022-08-19T11:14:22;12.45;;;11.45;;
40623;SDS011;26325;48.594;11.650;2022-08-19T11:16:51;12.85;;;11.85;;
40623;SDS011;26325;48.594;11.650;2022-08-19T11:19:21;12.50;;;11.45;;
40623;SDS011;26325;48.594;11.650;2022-08-19T11:21:49;11.63;;;10.73;;
40623;SDS011;26325;48.594;11.650;2022-08-19T11:24:21;12.00;;;11.10;;
40623;SDS011;26325;48.594;11.650;2022-08-19T11:26:54;10.93;;;10.15;;
40623;SDS011;26325;48.594;11.650;2022-08-19T11:29:26;12.55;;;11.65;;
40623;SDS011;26325;48.594;11.650;2022-08-19T11:31:54;13.50;;;12.40;;
40623;SDS011;26325;48.594;11.650;2022-08-19T11:34:22;11.70;;;10.80;;
40623;SDS011;26325;48.594;11.650;2022-08-19T11:36:51;11.65;;;10.65;;
40623;SDS011;26325;48.594;11.650;2022-08-19T11:39:19;10.57;;;9.77;;
40623;SDS011;26325;48.594;11.650;2022-08-19T11:41:49;10.52;;;9.73;;
40623;SDS011;26325;48.594;11.650;2022-08-19T11:44:15;11.13;;;10.23;;
40623;SDS011;26325;48.594;11.650;2022-08-19T11:46:44;11.60;;;10.75;;
40623;SDS011;26325;48.594;11.650;2022-08-19T11:49:13;11.15;;;10.25;;
40623;SDS011;26325;48.594;11.650;2022-08-19T11:51:40;10.88;;;9.98;;
40623;SDS011;26325;48.594;11.650;2022-08-19T11:54:08;9.95;;;9.25;;
40623;SDS011;26325;48.594;11.650;2022-08-19T11:56:36;11.15;;;10.35;;
40623;SDS011;26325;48.594;11.650;2022-08-19T11:59:02;10.32;;;9.52;;
40623;SDS011;26325;48.594;11.650;2022-08-19T12:01:28;11.13;;;10.25;;
40623;SDS011;26325;48.594;11.650;2022-08-19T12:03:55;11.48;;;10.48;;
40623;SDS011;26325;48.594;11.650;2022-08-19T12:06:24;10.35;;;9.55;;
40623;SDS011;26325;48.594;11.650;2022-08-19T12:08:54;12.15;;;11.25;;
40623;SDS011;26325;48.594;11.650;2022-08-19T12:11:22;9.73;;;9.02;;
40623;SDS011;26325;48.594;11.650;2022-08-19T12:13:48;9.70;;;9.00;;
40623;SDS011;26325;48.594;11.650;2022-08-19T12:16:17;8.88;;;8.18;;
40623;SDS011;26325;48.594;11.650;2022-08-19T12:18:45;8.10;;;7.50;;
40623;SDS011;26325;48.594;11.650;2022-08-19T12:21:18;7.40;;;6.90;;
40623;SDS011;26325;48.594;11.650;2022-08-19T12:23:46;6.97;;;6.47;;
40623;SDS011;26325;48.594;11.650;2022-08-19T12:26:14;5.95;;;5.55;;
40623;SDS011;26325;48.594;11.650;2022-08-19T12:28:39;5.53;;;5.13;;
40623;SDS011;26325;48.594;11.650;2022-08-19T12:31:07;4.00;;;3.80;;
40623;SDS011;26325;48.594;11.650;2022-08-19T12:33:35;3.75;;;3.40;;
40623;SDS011;26325;48.594;11.650;2022-08-19T12:36:05;3.10;;;2.90;;
40623;SDS011;26325;48.594;11.650;2022-08-19T12:38:33;2.72;;;2.47;;
40623;SDS011;26325;48.594;11.650;2022-08-19T12:41:03;2.60;;;2.40;;
40623;SDS011;26325;48.594;11.650;2022-08-19T12:43:33;2.80;;;2.60;;
40623;SDS011;26325;48.594;11.650;2022-08-19T12:46:03;2.45;;;2.35;;
40623;SDS011;26325;48.594;11.650;2022-08-19T12:48:32;2.60;;;2.40;;
40623;SDS011;26325;48.594;11.650;2022-08-19T12:51:05;2.65;;;2.45;;
40623;SDS011;26325;48.594;11.650;2022-08-19T12:53:32;2.50;;;2.30;;
40623;SDS011;26325;48.594;11.650;2022-08-19T12:58:25;2.65;;;2.45;;
40623;SDS011;26325;48.594;11.650;2022-08-19T13:00:52;2.50;;;2.30;;
40623;SDS011;26325;48.594;11.650;2022-08-19T13:03:20;2.95;;;2.42;;
40623;SDS011;26325;48.594;11.650;2022-08-19T13:05:53;2.50;;;2.30;;
40623;SDS011;26325;48.594;11.650;2022-08-19T13:08:28;2.35;;;2.15;;
40623;SDS011;26325;48.594;11.650;2022-08-19T13:10:54;2.20;;;2.10;;
40623;SDS011;26325;48.594;11.650;2022-08-19T13:13:21;2.08;;;1.98;;
40623;SDS011;26325;48.594;11.650;2022-08-19T13:15:51;2.03;;;1.92;;
40623;SDS011;26325;48.594;11.650;2022-08-19T13:18:18;3.05;;;2.40;;
40623;SDS011;26325;48.594;11.650;2022-08-19T13:20:45;3.17;;;2.55;;
40623;SDS011;26325;48.594;11.650;2022-08-19T13:23:11;2.20;;;2.10;;
40623;SDS011;26325;48.594;11.650;2022-08-19T13:25:38;2.55;;;2.45;;
40623;SDS011;26325;48.594;11.650;2022-08-19T13:28:04;3.00;;;2.80;;
40623;SDS011;26325;48.594;11.650;2022-08-19T13:30:32;2.50;;;2.40;;
40623;SDS011;26325;48.594;11.650;2022-08-19T13:33:20;2.92;;;2.72;;
40623;SDS011;26325;48.594;11.650;2022-08-19T13:35:56;2.90;;;2.70;;
40623;SDS011;26325;48.594;11.650;2022-08-19T13:38:26;2.85;;;2.65;;
40623;SDS011;26325;48.594;11.650;2022-08-19T13:40:54;3.15;;;2.95;;
40623;SDS011;26325;48.594;11.650;2022-08-19T13:43:23;3.38;;;3.10;;
40623;SDS011;26325;48.594;11.650;2022-08-19T13:45:53;3.30;;;3.00;;
40623;SDS011;26325;48.594;11.650;2022-08-19T13:48:25;2.65;;;2.50;;
40623;SDS011;26325;48.594;11.650;2022-08-19T13:50:52;2.28;;;2.08;;
40623;SDS011;26325;48.594;11.650;2022-08-19T13:53:19;2.80;;;2.60;;
40623;SDS011;26325;48.594;11.650;2022-08-19T13:55:48;3.00;;;2.80;;
40623;SDS011;26325;48.594;11.650;2022-08-19T13:58:16;2.83;;;2.38;;
40623;SDS011;26325;48.594;11.650;2022-08-19T14:00:44;2.33;;;2.17;;
40623;SDS011;26325;48.594;11.650;2022-08-19T14:03:11;2.28;;;2.10;;
40623;SDS011;26325;48.594;11.650;2022-08-19T14:05:38;2.13;;;2.03;;
40623;SDS011;26325;48.594;11.650;2022-08-19T14:08:04;2.30;;;2.20;;
40623;SDS011;26325;48.594;11.650;2022-08-19T14:10:30;2.38;;;2.28;;
40623;SDS011;26325;48.594;11.650;2022-08-19T14:12:58;2.13;;;2.03;;
40623;SDS011;26325;48.594;11.650;2022-08-19T14:15:25;1.95;;;1.85;;
40623;SDS011;26325;48.594;11.650;2022-08-19T14:17:52;2.35;;;2.25;;
40623;SDS011;26325;48.594;11.650;2022-08-19T14:20:19;2.20;;;2.10;;
40623;SDS011;26325;48.594;11.650;2022-08-19T14:22:46;2.10;;;2.00;;
40623;SDS011;26325;48.594;11.650;2022-08-19T14:25:22;3.05;;;2.85;;
40623;SDS011;26325;48.594;11.650;2022-08-19T14:27:51;3.78;;;3.58;;
40623;SDS011;26325;48.594;11.650;2022-08-19T14:30:26;4.57;;;4.28;;
40623;SDS011;26325;48.594;11.650;2022-08-19T14:32:58;4.00;;;3.80;;
40623;SDS011;26325;48.594;11.650;2022-08-19T14:35:26;4.03;;;3.83;;
40623;SDS011;26325;48.594;11.650;2022-08-19T14:37:55;4.22;;;4.03;;
40623;SDS011;26325;48.594;11.650;2022-08-19T14:40:28;4.00;;;3.80;;
40623;SDS011;26325;48.594;11.650;2022-08-19T14:42:59;4.80;;;4.50;;
40623;SDS011;26325;48.594;11.650;2022-08-19T14:45:35;4.90;;;4.60;;
40623;SDS011;26325;48.594;11.650;2022-08-19T14:48:04;4.68;;;4.38;;
40623;SDS011;26325;48.594;11.650;2022-08-19T14:50:30;4.70;;;4.40;;
40623;SDS011;26325;48.594;11.650;2022-08-19T14:53:00;4.90;;;4.60;;
40623;SDS011;26325;48.594;11.650;2022-08-19T14:55:29;5.10;;;4.80;;
40623;SDS011;26325;48.594;11.650;2022-08-19T14:57:56;5.60;;;5.30;;
40623;SDS011;26325;48.594;11.650;2022-08-19T15:00:22;6.63;;;6.22;;
40623;SDS011;26325;48.594;11.650;2022-08-19T15:02:49;7.28;;;6.78;;
40623;SDS011;26325;48.594;11.650;2022-08-19T15:05:15;8.10;;;7.60;;
40623;SDS011;26325;48.594;11.650;2022-08-19T15:07:42;8.02;;;7.53;;